AirNav   Everest Fuels
 
 936 users online  

0PS6 Herbst Heliport
East Prospect, Pennsylvania, USA

GOING TO EAST PROSPECT?


FAA INFORMATION EFFECTIVE 02 JANUARY 2020

Location

FAA Identifier: 0PS6
Lat/Long: 39-56-58.3560N 076-33-11.8760W
39-56.972600N 076-33.197933W
39.9495433,-76.5532989
(estimated)
Elevation: 485 ft. / 148 m (estimated)
Variation: 10W (1980)
From city: 2 miles SW of EAST PROSPECT, PA
Time zone: UTC -5 (UTC -4 during Daylight Saving Time)
Zip code: 17366

Heliport Operations

Heliport use: Private use. Permission required prior to landing
Activation date: 12/1986
Control tower: no
ARTCC: NEW YORK CENTER
FSS: WILLIAMSPORT FLIGHT SERVICE STATION
Attendance: UNATNDD
Wind indicator: yes
Segmented circle: yes

Heliport Communications

WX ASOS at THV (15 nm W): 119.275 (717-792-5529)
WX ASOS at LNS (16 nm NE): 125.675 (717-569-8860)
WX ASOS at MDT (17 nm NW): 118.8 (717-944-1372)

Nearby radio navigation aids

VOR radial/distance  VOR name  Freq  Var
LRPr239/15.8LANCASTER VOR/DME117.3009W
HARr142/31.8HARRISBURG VORTAC112.5010W
EMIr044/33.6WESTMINSTER VORTAC117.9008W
RAVr188/36.3RAVINE VORTAC114.6011W

 
NDB name  Hdg/Dist  Freq  Var  ID
BELLGROVE190/29.232810WBZJ -... --.. .---

Heliport Services

Runway Information

Helipad H1

Dimensions: 60 x 60 ft. / 18 x 18 m
40 FT DIAMETER TLOF. FATO NON LOAD BEARING.
Surface: turf
Traffic pattern: leftleft

Heliport Ownership and Management from official FAA records

Ownership: Privately-owned
Owner: FRANK L. HERBST
46 FARMALL LANE
WINDSOR, PA 17366
Phone 717-246-1569
Manager: FRANK L. HERBST
46 FARMALL LANE
WINDSOR, PA 17366
Phone 717-246-1569

Additional Remarks

FOR CD CTC HARRISBURG APCH AT 800-932-0712.

Instrument Procedures

There are no published instrument procedures at 0PS6.

Some nearby airports with instrument procedures:

N71 - Donegal Springs Airpark (9 nm N)
KTHV - York Airport (15 nm W)
KLNS - Lancaster Airport (16 nm NE)
KMDT - Harrisburg International Airport (17 nm NW)
58N - Reigle Field Airport (20 nm N)
 
Loc | Ops | Rwys | IFR | FBO | Links
Com | Nav | Svcs | Stats | Notes
Area around 0PS6 (Herbst Heliport)
 
Road maps at: MapQuest Bing Google
 
Aerial photo
No photo
 
Sectional chart

 
Airport distance calculator
Flying to Herbst Heliport? Find the distance to fly.

From to 0PS6

Sunrise and sunset
Times for 21-Jan-2020
 Local
(UTC-5)
 Zulu
(UTC)
Morning civil twilight06:5511:55
Sunrise07:2412:24
Sunset17:1122:11
Evening civil twilight17:4022:40

Current date and time
Zulu (UTC)  22-Jan-2020 03:23:09
Local (UTC-5)  21-Jan-2020 22:23:09
 
METAR
KTHV 
15nm W 
220253Z AUTO 28004KT 10SM CLR M07/M11 A3047 RMK AO2 SLP330 T10671111 50003
KLNS 
15nm NE 
220253Z 28005KT 10SM CLR M03/M10 A3047 RMK AO2 SLP322 T10331100 50002
KMDT 
18nm NW 
220256Z 30008KT 10SM FEW250 M03/M09 A3048 RMK AO2 SLP325 T10281094 50002
KCXY 
21nm NW 
220256Z AUTO 27004KT 10SM CLR M03/M10 A3049 RMK AO2 SLP329 T10331100 50003
KMUI 
28nm N 
220256Z AUTO 28005KT 10SM CLR M03/M10 A3046 RMK AO2 SLP325 T10261104 50002
KDMW 
29nm SW 
220245Z AUTO 31004KT 10SM CLR M03/M08 A3046 RMK AO2
TAF
KLNS 
15nm NE 
212151Z 2122/2218 32008KT P6SM SCT250 FM220000 VRB03KT P6SM BKN250
KMDT 
18nm NW 
212151Z 2122/2218 31010KT P6SM SCT250 FM220000 VRB03KT P6SM BKN250
NOTAMs
Click for the latest NOTAMs
NOTAMs are issued by the DoD/FAA and will open in a separate window not controlled by AirNav.

 

 
 

Would you like to see your business listed on this page?

 If your business provides an interesting product or service to pilots, flight crews, aircraft, or users of the Herbst Heliport, you should consider listing it here.  To start the listing process, click on the button below
 
Add a business
 

Other Pages about Herbst Heliport

Update a link
 
Copyright © AirNav, LLC. All rights reserved. Privacy Policy  Contact